createdAt,value
2023-08-11T00:00:32.333Z,12.29
2023-08-11T00:01:30.118Z,12.21
2023-08-11T00:02:27.219Z,12.12
2023-08-11T00:03:24.016Z,12.20
2023-08-11T00:04:20.729Z,12.21
2023-08-11T00:05:21.531Z,12.25
2023-08-11T00:06:18.267Z,12.31
2023-08-11T00:07:14.887Z,12.33
2023-08-11T00:08:14.332Z,12.38
2023-08-11T00:09:12.399Z,12.48
2023-08-11T00:10:09.477Z,12.59
2023-08-11T00:11:07.462Z,12.56
2023-08-11T00:12:04.402Z,12.48
2023-08-11T00:13:01.887Z,12.55
2023-08-11T00:13:58.594Z,12.58
2023-08-11T00:14:55.245Z,12.60
2023-08-11T00:15:51.981Z,12.56
2023-08-11T00:16:48.631Z,12.67
2023-08-11T00:17:45.458Z,12.65
2023-08-11T00:18:42.284Z,12.62
2023-08-11T00:19:39.140Z,12.58
2023-08-11T00:20:36.088Z,12.67
2023-08-11T00:21:32.757Z,12.73
2023-08-11T00:22:29.464Z,12.71
2023-08-11T00:23:26.199Z,12.68
2023-08-11T00:24:22.849Z,12.50
2023-08-11T00:25:19.614Z,12.68
2023-08-11T00:26:16.466Z,12.74
2023-08-11T00:27:13.167Z,12.70
2023-08-11T00:28:09.960Z,12.70
2023-08-11T00:29:06.709Z,12.71
2023-08-11T00:30:05.550Z,12.75
2023-08-11T00:31:02.319Z,12.75
2023-08-11T00:31:59.438Z,12.67
2023-08-11T00:32:56.249Z,12.70
2023-08-11T00:33:53.078Z,12.72
2023-08-11T00:34:50.101Z,12.69
2023-08-11T00:35:46.894Z,12.59
2023-08-11T00:36:43.553Z,12.68
2023-08-11T00:37:40.290Z,12.74
2023-08-11T00:38:38.926Z,12.81
2023-08-11T00:39:36.954Z,12.77
2023-08-11T00:40:33.646Z,12.76
2023-08-11T00:41:31.471Z,12.72
2023-08-11T00:42:28.072Z,12.83
2023-08-11T00:43:24.695Z,12.69
2023-08-11T00:44:22.080Z,12.70
2023-08-11T00:45:19.659Z,12.84
2023-08-11T00:46:16.521Z,12.86
2023-08-11T00:47:13.351Z,12.75
2023-08-11T00:48:09.978Z,12.89
2023-08-11T00:49:06.920Z,12.88
2023-08-11T00:50:04.497Z,12.90
2023-08-11T00:51:02.739Z,12.89
2023-08-11T00:51:59.968Z,12.81
2023-08-11T00:52:56.773Z,12.84
2023-08-11T00:53:53.718Z,12.73
2023-08-11T00:54:50.447Z,12.75
2023-08-11T00:55:47.455Z,12.70
2023-08-11T00:56:45.975Z,12.60
2023-08-11T00:57:43.669Z,12.51
2023-08-11T00:58:40.844Z,12.58
2023-08-11T00:59:37.669Z,12.65
2023-08-11T01:00:34.385Z,12.67
2023-08-11T01:01:31.184Z,12.68
2023-08-11T01:02:28.052Z,12.70
2023-08-11T01:03:25.857Z,12.63
2023-08-11T01:04:22.611Z,12.63
2023-08-11T01:05:20.460Z,12.56
2023-08-11T01:06:20.292Z,12.48
2023-08-11T01:07:28.736Z,12.43
2023-08-11T01:08:39.869Z,12.40
2023-08-11T01:09:49.070Z,12.49
2023-08-11T01:10:46.462Z,12.49
2023-08-11T01:12:21.650Z,12.44
2023-08-11T01:13:21.330Z,12.51
2023-08-11T01:14:51.029Z,12.59
2023-08-11T01:16:01.502Z,12.50
2023-08-11T01:17:00.557Z,12.33
2023-08-11T01:17:58.178Z,12.27
2023-08-11T01:18:55.126Z,12.31
2023-08-11T01:19:51.821Z,12.33
2023-08-11T01:20:52.401Z,12.31
2023-08-11T01:21:50.684Z,12.37
2023-08-11T01:22:51.401Z,12.38
2023-08-11T01:23:48.616Z,12.35
2023-08-11T01:24:46.575Z,12.50
2023-08-11T01:25:43.520Z,12.41
2023-08-11T01:26:40.242Z,12.49
2023-08-11T01:27:40.355Z,12.27
2023-08-11T01:28:37.098Z,12.01
2023-08-11T01:29:33.712Z,11.85
2023-08-11T01:30:31.517Z,11.75
2023-08-11T01:31:28.349Z,11.65
2023-08-11T01:32:25.363Z,11.68
2023-08-11T01:33:23.062Z,11.60
2023-08-11T01:34:19.782Z,11.65
2023-08-11T01:35:25.353Z,11.76
2023-08-11T01:36:26.429Z,11.63
2023-08-11T01:37:23.084Z,11.53
2023-08-11T01:38:19.758Z,11.64
2023-08-11T01:39:16.393Z,11.54
2023-08-11T01:40:15.111Z,11.55
2023-08-11T01:41:13.117Z,11.68
2023-08-11T01:42:10.307Z,11.70
2023-08-11T01:43:09.680Z,11.73
2023-08-11T01:44:09.998Z,11.85
2023-08-11T01:45:09.056Z,11.90
2023-08-11T01:46:05.908Z,11.94
2023-08-11T01:47:04.390Z,11.87
2023-08-11T01:48:02.891Z,11.82
2023-08-11T01:49:00.277Z,11.69
2023-08-11T01:49:57.075Z,11.84
2023-08-11T01:50:54.133Z,11.78
2023-08-11T01:51:50.997Z,11.67
2023-08-11T01:52:49.865Z,11.78
2023-08-11T01:53:46.789Z,11.74
2023-08-11T01:54:44.399Z,11.71
2023-08-11T01:55:42.047Z,11.71
2023-08-11T01:56:40.735Z,11.57
2023-08-11T01:57:45.041Z,11.73
2023-08-11T01:58:49.289Z,11.71
2023-08-11T01:59:46.505Z,11.75
2023-08-11T02:00:43.190Z,11.67
2023-08-11T02:01:41.153Z,11.62
2023-08-11T02:02:40.940Z,11.54
2023-08-11T02:03:37.802Z,11.51
2023-08-11T02:04:34.646Z,11.46
2023-08-11T02:05:31.499Z,11.44
2023-08-11T02:06:28.165Z,11.39
2023-08-11T02:07:24.822Z,11.50
2023-08-11T02:08:23.292Z,11.54
2023-08-11T02:09:20.037Z,11.64
2023-08-11T02:10:17.248Z,11.65
2023-08-11T02:11:14.584Z,11.57
2023-08-11T02:12:11.333Z,11.71
2023-08-11T02:13:08.068Z,11.77
2023-08-11T02:14:08.046Z,11.74
2023-08-11T02:15:08.742Z,11.78
2023-08-11T02:16:05.454Z,11.79
2023-08-11T02:17:02.199Z,11.75
2023-08-11T02:17:58.947Z,11.77
2023-08-11T02:18:55.748Z,11.78
2023-08-11T02:19:52.498Z,11.95
2023-08-11T02:20:49.748Z,11.89
2023-08-11T02:21:46.477Z,11.97
2023-08-11T02:22:43.095Z,11.99
2023-08-11T02:23:39.708Z,12.03
2023-08-11T02:24:36.320Z,12.05
2023-08-11T02:25:33.148Z,12.10
2023-08-11T02:26:29.887Z,11.97
2023-08-11T02:27:26.662Z,11.83
2023-08-11T02:28:23.471Z,11.94
2023-08-11T02:29:20.121Z,11.96
2023-08-11T02:30:16.739Z,12.03
2023-08-11T02:31:13.420Z,12.00
2023-08-11T02:32:10.173Z,12.10
2023-08-11T02:33:07.615Z,12.10
2023-08-11T02:34:04.417Z,12.13
2023-08-11T02:35:01.190Z,12.16
2023-08-11T02:35:57.848Z,12.18
2023-08-11T02:36:54.577Z,12.14
2023-08-11T02:37:51.271Z,11.84
2023-08-11T02:38:47.921Z,11.72
2023-08-11T02:39:45.397Z,11.71
2023-08-11T02:40:42.126Z,11.68
2023-08-11T02:41:38.842Z,11.61
2023-08-11T02:42:36.905Z,11.49
2023-08-11T02:43:35.279Z,11.48
2023-08-11T02:44:31.960Z,11.42
2023-08-11T02:45:28.731Z,11.43
2023-08-11T02:46:25.918Z,11.54
2023-08-11T02:47:22.689Z,11.47
2023-08-11T02:48:19.367Z,11.44
2023-08-11T02:49:16.004Z,11.31
2023-08-11T02:50:14.470Z,11.25
2023-08-11T02:51:11.299Z,11.32
2023-08-11T02:52:08.484Z,11.32
2023-08-11T02:53:06.039Z,11.35
2023-08-11T02:54:02.866Z,11.38
2023-08-11T02:54:59.642Z,11.42
2023-08-11T02:55:56.264Z,11.40
2023-08-11T02:56:52.926Z,11.31
2023-08-11T02:57:49.673Z,11.29
2023-08-11T02:58:46.392Z,11.31
2023-08-11T02:59:44.345Z,11.25
2023-08-11T03:00:42.291Z,11.18
2023-08-11T03:01:39.047Z,11.20
2023-08-11T03:02:35.784Z,11.21
2023-08-11T03:03:32.684Z,11.22
2023-08-11T03:04:29.685Z,11.16
2023-08-11T03:05:26.360Z,11.33
2023-08-11T03:06:23.075Z,11.36
2023-08-11T03:07:19.777Z,11.37
2023-08-11T03:08:16.472Z,11.30
2023-08-11T03:09:13.631Z,11.40
2023-08-11T03:10:10.852Z,11.39
2023-08-11T03:11:07.588Z,11.40
2023-08-11T03:12:04.415Z,11.36
2023-08-11T03:13:01.194Z,11.52
2023-08-11T03:13:57.971Z,11.57
2023-08-11T03:14:54.630Z,11.57
2023-08-11T03:15:53.409Z,11.64
2023-08-11T03:16:50.321Z,11.56
2023-08-11T03:17:47.666Z,11.75
2023-08-11T03:18:44.452Z,11.87
2023-08-11T03:19:41.124Z,11.92
2023-08-11T03:20:38.084Z,11.94
2023-08-11T03:21:34.731Z,11.97
2023-08-11T03:22:31.399Z,12.02
2023-08-11T03:23:29.947Z,12.07
2023-08-11T03:24:26.837Z,12.09
2023-08-11T03:25:23.637Z,12.21
2023-08-11T03:26:20.368Z,12.29
2023-08-11T03:27:18.832Z,12.30
2023-08-11T03:28:15.525Z,12.23
2023-08-11T03:29:12.182Z,12.25
2023-08-11T03:30:10.803Z,12.24
2023-08-11T03:31:07.442Z,12.25
2023-08-11T03:32:04.320Z,12.24
2023-08-11T03:33:00.998Z,12.22
2023-08-11T03:33:57.693Z,12.26
2023-08-11T03:34:54.613Z,12.26
2023-08-11T03:35:51.287Z,12.27
2023-08-11T03:36:47.923Z,12.28
2023-08-11T03:37:44.685Z,12.41
2023-08-11T03:38:41.872Z,12.47
2023-08-11T03:39:38.555Z,12.55
2023-08-11T03:40:35.365Z,12.56
2023-08-11T03:41:32.327Z,12.60
2023-08-11T03:42:29.021Z,12.66
2023-08-11T03:43:25.977Z,12.64
2023-08-11T03:44:22.770Z,12.66
2023-08-11T03:45:19.654Z,12.70
2023-08-11T03:46:16.421Z,12.76
2023-08-11T03:47:13.180Z,12.77
2023-08-11T03:48:09.893Z,12.75
2023-08-11T03:49:07.904Z,12.77
2023-08-11T03:50:05.040Z,12.80
2023-08-11T03:51:02.609Z,12.74
2023-08-11T03:51:59.364Z,12.96
2023-08-11T03:52:56.232Z,13.08
2023-08-11T03:53:52.966Z,13.16
2023-08-11T03:54:49.718Z,13.12
2023-08-11T03:55:49.194Z,13.04
2023-08-11T03:56:45.977Z,12.95
2023-08-11T03:57:42.720Z,13.07
2023-08-11T03:58:39.414Z,13.14
2023-08-11T03:59:36.144Z,13.19
2023-08-11T04:00:32.783Z,13.19
2023-08-11T04:01:29.660Z,13.04
2023-08-11T04:02:26.550Z,13.22
2023-08-11T04:03:23.634Z,13.32
2023-08-11T04:04:20.449Z,13.38
2023-08-11T04:05:18.179Z,13.39
2023-08-11T04:06:15.178Z,13.42
2023-08-11T04:07:11.886Z,13.21
2023-08-11T04:08:08.790Z,13.13
2023-08-11T04:09:05.656Z,13.07
2023-08-11T04:10:02.347Z,13.05
2023-08-11T04:10:59.059Z,13.04
2023-08-11T04:11:55.703Z,13.06
2023-08-11T04:12:52.560Z,13.05
2023-08-11T04:13:49.160Z,13.10
2023-08-11T04:14:45.775Z,13.10
2023-08-11T04:15:42.397Z,13.15
2023-08-11T04:16:39.050Z,13.22
2023-08-11T04:17:37.987Z,13.16
2023-08-11T04:18:34.763Z,13.25
2023-08-11T04:19:31.603Z,13.35
2023-08-11T04:20:29.967Z,13.42
2023-08-11T04:21:26.805Z,13.50
2023-08-11T04:22:38.223Z,13.48
2023-08-11T04:23:35.922Z,13.53
2023-08-11T04:24:32.546Z,13.56
2023-08-11T04:25:29.524Z,13.50
2023-08-11T04:26:26.289Z,13.55
2023-08-11T04:27:22.884Z,13.45
2023-08-11T04:28:19.535Z,13.52
2023-08-11T04:29:16.216Z,13.55
2023-08-11T04:30:13.813Z,13.58
2023-08-11T04:31:11.300Z,13.45
2023-08-11T04:32:08.200Z,13.29
2023-08-11T04:33:05.286Z,13.39
2023-08-11T04:34:02.138Z,13.29
2023-08-11T04:34:58.834Z,13.09
2023-08-11T04:35:55.476Z,12.98
2023-08-11T04:36:52.172Z,13.12
2023-08-11T04:37:48.846Z,13.32
2023-08-11T04:38:45.530Z,13.42
2023-08-11T04:39:42.186Z,13.47
2023-08-11T04:40:38.845Z,13.48
2023-08-11T04:41:35.622Z,13.54
2023-08-11T04:42:32.281Z,13.50
2023-08-11T04:43:30.368Z,13.45
2023-08-11T04:44:27.292Z,13.42
2023-08-11T04:45:24.003Z,13.40
2023-08-11T04:46:20.749Z,13.39
2023-08-11T04:47:17.447Z,13.54
2023-08-11T04:48:14.155Z,13.55
2023-08-11T04:49:10.870Z,13.65
2023-08-11T04:50:09.348Z,13.75
2023-08-11T04:51:06.110Z,13.66
2023-08-11T04:52:02.791Z,13.70
2023-08-11T04:52:59.549Z,13.57
2023-08-11T04:54:01.545Z,13.58
2023-08-11T04:54:58.978Z,13.76
2023-08-11T04:55:55.691Z,13.65
2023-08-11T04:56:52.991Z,13.66
2023-08-11T04:57:49.764Z,13.70
2023-08-11T04:58:46.420Z,13.79
2023-08-11T04:59:43.182Z,13.89
2023-08-11T05:00:39.913Z,13.97
2023-08-11T05:01:36.649Z,14.03
2023-08-11T05:02:34.431Z,13.90
2023-08-11T05:03:31.814Z,14.07
2023-08-11T05:04:28.662Z,14.12
2023-08-11T05:05:25.319Z,14.21
2023-08-11T05:06:22.898Z,14.26
2023-08-11T05:07:19.780Z,14.20
2023-08-11T05:08:16.419Z,14.21
2023-08-11T05:09:13.230Z,14.30
2023-08-11T05:10:10.287Z,14.31
2023-08-11T05:11:06.994Z,14.16
2023-08-11T05:12:04.099Z,14.21
2023-08-11T05:13:00.762Z,14.37
2023-08-11T05:13:57.442Z,14.46
2023-08-11T05:14:54.557Z,14.56
2023-08-11T05:15:51.275Z,14.51
2023-08-11T05:16:47.994Z,14.55
2023-08-11T05:17:44.881Z,14.61
2023-08-11T05:18:43.936Z,14.63
2023-08-11T05:19:41.172Z,14.22
2023-08-11T05:20:37.863Z,14.26
2023-08-11T05:21:34.689Z,14.27
2023-08-11T05:22:31.377Z,14.22
2023-08-11T05:23:28.069Z,14.14
2023-08-11T05:24:24.896Z,14.28
2023-08-11T05:25:21.827Z,14.47
2023-08-11T05:26:18.896Z,14.55
2023-08-11T05:27:16.408Z,14.68
2023-08-11T05:28:13.104Z,14.46
2023-08-11T05:29:11.894Z,14.44
2023-08-11T05:30:09.544Z,14.64
2023-08-11T05:31:07.140Z,14.74
2023-08-11T05:32:04.142Z,14.89
2023-08-11T05:33:00.888Z,14.93
2023-08-11T05:33:57.707Z,14.85
2023-08-11T05:34:56.753Z,14.61
2023-08-11T05:35:53.635Z,14.84
2023-08-11T05:36:50.357Z,15.20
2023-08-11T05:37:48.530Z,15.17
2023-08-11T05:38:46.808Z,14.75
2023-08-11T05:39:46.350Z,14.78
2023-08-11T05:40:44.104Z,15.10
2023-08-11T05:41:42.421Z,15.39
2023-08-11T05:42:39.415Z,14.86
2023-08-11T05:43:37.552Z,14.93
2023-08-11T05:44:34.403Z,15.08
2023-08-11T05:45:31.075Z,14.89
2023-08-11T05:46:27.806Z,15.14
2023-08-11T05:47:24.495Z,15.46
2023-08-11T05:48:21.145Z,15.66
2023-08-11T05:49:17.876Z,15.66
2023-08-11T05:50:15.045Z,15.84
2023-08-11T05:51:11.668Z,15.71
2023-08-11T05:52:08.334Z,15.77
2023-08-11T05:53:05.070Z,15.43
2023-08-11T05:54:01.705Z,15.53
2023-08-11T05:54:58.392Z,15.62
2023-08-11T05:55:55.022Z,15.71
2023-08-11T05:56:54.344Z,15.88
2023-08-11T05:57:51.043Z,16.08
2023-08-11T05:58:47.730Z,16.16
2023-08-11T05:59:44.338Z,15.85
2023-08-11T06:00:41.075Z,15.70
2023-08-11T06:01:38.668Z,15.93
2023-08-11T06:02:35.387Z,15.94
2023-08-11T06:03:32.300Z,15.84
2023-08-11T06:04:29.111Z,15.79
2023-08-11T06:05:26.002Z,15.80
2023-08-11T06:06:22.732Z,15.73
2023-08-11T06:07:19.403Z,15.83
2023-08-11T06:08:16.117Z,15.92
2023-08-11T06:09:12.893Z,16.14
2023-08-11T06:10:10.746Z,16.14
2023-08-11T06:11:07.447Z,16.14
2023-08-11T06:12:04.685Z,16.07
2023-08-11T06:13:01.573Z,16.24
2023-08-11T06:13:58.231Z,16.14
2023-08-11T06:14:54.850Z,15.99
2023-08-11T06:15:52.004Z,16.16
2023-08-11T06:16:48.760Z,16.30
2023-08-11T06:17:50.480Z,16.55
2023-08-11T06:18:47.336Z,16.52
2023-08-11T06:19:44.046Z,16.65
2023-08-11T06:20:42.110Z,16.83
2023-08-11T06:21:39.349Z,16.86
2023-08-11T06:22:36.047Z,16.70
2023-08-11T06:23:33.386Z,16.62
2023-08-11T06:24:30.365Z,16.92
2023-08-11T06:25:27.275Z,17.18
2023-08-11T06:26:24.151Z,16.71
2023-08-11T06:27:22.958Z,16.36
2023-08-11T06:28:19.628Z,16.02
2023-08-11T06:29:16.422Z,16.22
2023-08-11T06:30:13.419Z,16.76
2023-08-11T06:31:10.949Z,16.68
2023-08-11T06:32:08.566Z,16.64
2023-08-11T06:33:05.595Z,16.61
2023-08-11T06:34:02.428Z,16.69
2023-08-11T06:34:59.075Z,16.67
2023-08-11T06:35:55.738Z,16.73
2023-08-11T06:36:52.398Z,16.96
2023-08-11T06:37:49.392Z,17.17
2023-08-11T06:38:46.096Z,16.45
2023-08-11T06:39:42.811Z,16.80
2023-08-11T06:40:39.570Z,16.70
2023-08-11T06:41:36.195Z,16.63
2023-08-11T06:42:33.051Z,17.11
2023-08-11T06:43:31.173Z,16.95
2023-08-11T06:44:27.827Z,17.09
2023-08-11T06:45:24.541Z,17.12
2023-08-11T06:46:21.709Z,17.34
2023-08-11T06:47:18.585Z,17.51
2023-08-11T06:48:15.330Z,17.23
2023-08-11T06:49:12.114Z,17.36
2023-08-11T06:50:09.381Z,17.23
2023-08-11T06:51:06.225Z,17.20
2023-08-11T06:52:03.448Z,17.21
2023-08-11T06:53:00.756Z,16.93
2023-08-11T06:53:57.521Z,16.78
2023-08-11T06:54:54.233Z,17.24
2023-08-11T06:55:50.872Z,17.16
2023-08-11T06:56:47.533Z,17.29
2023-08-11T06:57:44.209Z,17.58
2023-08-11T06:58:40.974Z,17.49
2023-08-11T06:59:37.606Z,17.80
2023-08-11T07:00:34.278Z,17.89
2023-08-11T07:01:31.042Z,18.03
2023-08-11T07:02:27.802Z,17.91
2023-08-11T07:03:24.623Z,17.17
2023-08-11T07:04:21.906Z,17.34
2023-08-11T07:05:18.684Z,17.45
2023-08-11T07:06:15.437Z,17.61
2023-08-11T07:07:12.039Z,17.66
2023-08-11T07:08:08.788Z,17.62
2023-08-11T07:09:06.016Z,17.58
2023-08-11T07:10:04.661Z,17.62
2023-08-11T07:11:01.553Z,17.63
2023-08-11T07:11:58.280Z,18.13
2023-08-11T07:12:54.970Z,18.09
2023-08-11T07:13:51.591Z,18.38
2023-08-11T07:14:48.419Z,18.07
2023-08-11T07:15:45.195Z,18.23
2023-08-11T07:16:41.865Z,17.90
2023-08-11T07:17:38.640Z,18.30
2023-08-11T07:18:35.884Z,18.61
2023-08-11T07:19:32.573Z,18.92
2023-08-11T07:20:29.222Z,18.85
2023-08-11T07:21:25.959Z,18.74
2023-08-11T07:22:22.690Z,18.69
2023-08-11T07:23:19.291Z,17.73
2023-08-11T07:24:16.111Z,17.98
2023-08-11T07:25:12.783Z,18.13
2023-08-11T07:26:09.403Z,18.10
2023-08-11T07:27:06.247Z,18.16
2023-08-11T07:28:04.054Z,18.51
2023-08-11T07:29:00.874Z,19.08
2023-08-11T07:29:58.105Z,18.39
2023-08-11T07:30:54.748Z,18.53
2023-08-11T07:31:51.444Z,17.94
2023-08-11T07:32:48.302Z,17.96
2023-08-11T07:33:44.962Z,18.42
2023-08-11T07:34:41.969Z,18.47
2023-08-11T07:35:38.752Z,18.72
2023-08-11T07:36:35.408Z,18.83
2023-08-11T07:37:32.388Z,18.96
2023-08-11T07:38:29.059Z,19.13
2023-08-11T07:39:25.722Z,18.84
2023-08-11T07:40:22.608Z,18.58
2023-08-11T07:41:19.295Z,19.14
2023-08-11T07:42:15.970Z,18.42
2023-08-11T07:43:13.182Z,18.25
2023-08-11T07:44:10.249Z,18.77
2023-08-11T07:45:07.593Z,19.04
2023-08-11T07:46:04.588Z,18.92
2023-08-11T07:47:04.819Z,18.91
2023-08-11T07:48:01.683Z,18.91
2023-08-11T07:48:58.343Z,18.62
2023-08-11T07:49:57.943Z,18.50
2023-08-11T07:50:54.945Z,18.92
2023-08-11T07:51:52.129Z,19.21
2023-08-11T07:52:48.835Z,18.89
2023-08-11T07:53:48.432Z,19.51
2023-08-11T07:54:45.378Z,19.59
2023-08-11T07:55:42.324Z,19.43
2023-08-11T07:56:38.952Z,19.58
2023-08-11T07:57:35.656Z,19.57
2023-08-11T07:58:32.596Z,19.47
2023-08-11T07:59:29.313Z,19.69
2023-08-11T08:00:26.935Z,19.86
2023-08-11T08:01:24.903Z,19.95
2023-08-11T08:02:22.868Z,19.83
2023-08-11T08:03:19.599Z,19.86
2023-08-11T08:04:18.503Z,20.29
2023-08-11T08:05:15.172Z,20.34
2023-08-11T08:06:11.844Z,20.01
2023-08-11T08:07:08.797Z,19.80
2023-08-11T08:08:06.315Z,20.33
2023-08-11T08:09:04.044Z,20.31
2023-08-11T08:10:00.675Z,20.14
2023-08-11T08:10:57.738Z,19.98
2023-08-11T08:11:54.443Z,19.35
2023-08-11T08:12:51.105Z,19.55
2023-08-11T08:13:47.786Z,19.62
2023-08-11T08:14:44.541Z,19.72
2023-08-11T08:15:41.290Z,20.06
2023-08-11T08:16:39.390Z,20.10
2023-08-11T08:17:36.747Z,20.13
2023-08-11T08:18:33.653Z,20.05
2023-08-11T08:19:30.558Z,19.97
2023-08-11T08:20:27.631Z,19.91
2023-08-11T08:21:24.356Z,19.66
2023-08-11T08:22:21.088Z,19.86
2023-08-11T08:23:18.370Z,19.64
2023-08-11T08:24:18.076Z,19.52
2023-08-11T08:25:16.247Z,19.85
2023-08-11T08:26:13.041Z,19.48
2023-08-11T08:27:10.774Z,19.68
2023-08-11T08:28:07.719Z,19.61
2023-08-11T08:29:05.151Z,19.51
2023-08-11T08:30:01.950Z,19.96
2023-08-11T08:30:58.624Z,20.09
2023-08-11T08:31:55.332Z,20.42
2023-08-11T08:32:52.002Z,20.05
2023-08-11T08:33:50.293Z,19.48
2023-08-11T08:34:49.214Z,19.50
2023-08-11T08:35:45.921Z,19.87
2023-08-11T08:36:42.601Z,20.08
2023-08-11T08:37:39.370Z,20.08
2023-08-11T08:38:36.833Z,20.06
2023-08-11T08:39:33.489Z,19.98
2023-08-11T08:40:30.383Z,20.27
2023-08-11T08:41:32.246Z,20.28
2023-08-11T08:42:29.209Z,20.18
2023-08-11T08:43:26.602Z,19.71
2023-08-11T08:44:23.836Z,19.56
2023-08-11T08:45:21.758Z,20.23
2023-08-11T08:46:21.550Z,19.98
2023-08-11T08:47:21.383Z,19.99
2023-08-11T08:48:25.398Z,20.28
2023-08-11T08:49:26.997Z,20.78
2023-08-11T08:50:24.429Z,21.24
2023-08-11T08:51:21.075Z,21.28
2023-08-11T08:52:18.065Z,21.60
2023-08-11T08:53:14.965Z,22.03
2023-08-11T08:54:11.766Z,22.38
2023-08-11T08:55:08.700Z,22.40
2023-08-11T08:56:06.368Z,21.78
2023-08-11T08:57:05.734Z,21.44
2023-08-11T08:58:02.524Z,21.30
2023-08-11T08:58:59.169Z,20.93
2023-08-11T08:59:57.544Z,21.07
2023-08-11T09:00:54.289Z,21.17
2023-08-11T09:01:51.538Z,20.74
2023-08-11T09:02:49.785Z,20.95
2023-08-11T09:03:47.538Z,21.17
2023-08-11T09:04:46.700Z,21.40
2023-08-11T09:05:43.721Z,21.08
2023-08-11T09:06:42.128Z,20.93
2023-08-11T09:07:39.891Z,20.95
2023-08-11T09:08:40.169Z,21.06
2023-08-11T09:09:36.830Z,20.79
2023-08-11T09:10:37.658Z,20.89
2023-08-11T09:11:34.403Z,21.08
2023-08-11T09:12:31.240Z,20.74
2023-08-11T09:13:28.189Z,20.82
2023-08-11T09:14:24.873Z,20.60
2023-08-11T09:15:23.051Z,20.80
2023-08-11T09:16:24.583Z,21.19
2023-08-11T09:17:22.311Z,21.47
2023-08-11T09:18:19.446Z,21.21
2023-08-11T09:19:16.536Z,21.81
2023-08-11T09:20:18.700Z,21.81
2023-08-11T09:21:15.365Z,21.49
2023-08-11T09:22:12.355Z,21.34
2023-08-11T09:23:09.816Z,21.82
2023-08-11T09:24:10.949Z,21.61
2023-08-11T09:25:08.921Z,21.24
2023-08-11T09:26:05.664Z,21.05
2023-08-11T09:27:02.385Z,20.98
2023-08-11T09:27:59.730Z,20.83
2023-08-11T09:28:56.941Z,21.28
2023-08-11T09:29:56.664Z,21.42
2023-08-11T09:30:54.025Z,21.37
2023-08-11T09:31:55.695Z,21.38
2023-08-11T09:32:52.509Z,20.54
2023-08-11T09:33:50.031Z,20.37
2023-08-11T09:34:47.507Z,20.51
2023-08-11T09:35:44.310Z,20.86
2023-08-11T09:36:41.959Z,20.74
2023-08-11T09:37:38.599Z,20.48
2023-08-11T09:38:35.286Z,20.61
2023-08-11T09:39:32.366Z,20.33
2023-08-11T09:40:29.040Z,20.51
2023-08-11T09:41:25.711Z,19.97
2023-08-11T09:42:22.399Z,20.13
2023-08-11T09:43:19.172Z,20.46
2023-08-11T09:44:17.592Z,20.52
2023-08-11T09:45:14.351Z,20.58
2023-08-11T09:46:11.275Z,20.79
2023-08-11T09:47:22.467Z,20.53
2023-08-11T09:48:20.017Z,20.52
2023-08-11T09:49:17.007Z,20.11
2023-08-11T09:50:13.719Z,20.10
2023-08-11T09:51:11.699Z,20.42
2023-08-11T09:52:09.113Z,20.11
2023-08-11T09:53:06.632Z,20.22
2023-08-11T09:54:07.482Z,20.25
2023-08-11T09:55:07.606Z,20.13
2023-08-11T09:56:04.485Z,19.97
2023-08-11T09:57:01.422Z,20.29
2023-08-11T09:58:00.906Z,20.33
2023-08-11T09:58:58.564Z,20.43
2023-08-11T09:59:58.318Z,20.39
2023-08-11T10:01:03.874Z,20.12
2023-08-11T10:02:13.835Z,20.06
2023-08-11T10:03:33.922Z,20.32
2023-08-11T10:04:30.588Z,20.09
2023-08-11T10:05:30.854Z,20.09
2023-08-11T10:06:30.804Z,20.04
2023-08-11T10:07:40.383Z,19.82
2023-08-11T10:08:37.762Z,19.83
2023-08-11T10:09:36.516Z,19.89
2023-08-11T10:10:36.815Z,20.22
2023-08-11T10:11:36.004Z,20.27
2023-08-11T10:12:34.098Z,20.22
2023-08-11T10:13:32.799Z,20.08
2023-08-11T10:14:30.508Z,20.01
2023-08-11T10:15:30.883Z,19.72
2023-08-11T10:16:29.070Z,19.74
2023-08-11T10:17:26.598Z,19.92
2023-08-11T10:18:24.710Z,19.76
2023-08-11T10:19:23.312Z,19.81
2023-08-11T10:20:21.499Z,19.88
2023-08-11T10:21:19.230Z,19.61
2023-08-11T10:22:15.941Z,19.85
2023-08-11T10:23:14.595Z,19.93
2023-08-11T10:24:11.668Z,19.94
2023-08-11T10:25:09.513Z,19.80
2023-08-11T10:26:06.989Z,19.90
2023-08-11T10:27:06.344Z,19.99
2023-08-11T10:28:08.490Z,20.02
2023-08-11T10:29:05.795Z,19.78
2023-08-11T10:30:06.429Z,19.68
2023-08-11T10:31:06.227Z,19.95
2023-08-11T10:32:03.112Z,19.91
2023-08-11T10:33:11.005Z,19.94
2023-08-11T10:34:08.022Z,19.98
2023-08-11T10:35:08.018Z,20.14
2023-08-11T10:36:06.281Z,20.14
2023-08-11T10:37:02.993Z,20.21
2023-08-11T10:38:00.579Z,20.16
2023-08-11T10:39:01.974Z,19.90
2023-08-11T10:40:10.631Z,19.78
2023-08-11T10:41:10.434Z,19.81
2023-08-11T10:42:12.415Z,19.75
2023-08-11T10:43:09.056Z,19.85
2023-08-11T10:44:05.902Z,19.82
2023-08-11T10:45:14.218Z,19.98
2023-08-11T10:46:31.582Z,20.04
2023-08-11T10:47:30.031Z,20.01
2023-08-11T10:48:26.798Z,19.80
2023-08-11T10:49:41.555Z,19.97
2023-08-11T10:50:39.452Z,20.00
2023-08-11T10:51:38.970Z,20.03
2023-08-11T10:52:35.946Z,20.26
2023-08-11T10:53:32.565Z,19.97
2023-08-11T10:54:29.294Z,19.67
2023-08-11T10:55:31.258Z,20.00
2023-08-11T10:56:37.407Z,19.93
2023-08-11T10:57:35.696Z,19.93
2023-08-11T10:58:33.572Z,20.29
2023-08-11T10:59:31.639Z,20.07
2023-08-11T11:00:28.393Z,20.45
2023-08-11T11:01:25.397Z,20.57
2023-08-11T11:02:22.804Z,20.83
2023-08-11T11:03:19.986Z,21.46
2023-08-11T11:04:20.083Z,21.23
2023-08-11T11:05:21.252Z,21.18
2023-08-11T11:06:18.043Z,21.31
2023-08-11T11:07:15.744Z,21.37
2023-08-11T11:08:12.499Z,21.19
2023-08-11T11:09:09.447Z,21.57
2023-08-11T11:10:06.970Z,21.12
2023-08-11T11:11:03.681Z,21.16
2023-08-11T11:12:00.379Z,20.99
2023-08-11T11:12:57.200Z,20.64
2023-08-11T11:13:53.987Z,20.34
2023-08-11T11:14:51.131Z,20.21
2023-08-11T11:15:48.039Z,20.50
2023-08-11T11:16:44.914Z,20.29
2023-08-11T11:17:41.784Z,20.37
2023-08-11T11:18:38.496Z,20.56
2023-08-11T11:19:35.697Z,20.52
2023-08-11T11:20:32.483Z,20.41
2023-08-11T11:21:29.639Z,20.46
2023-08-11T11:22:26.297Z,20.43
2023-08-11T11:23:22.985Z,20.30
2023-08-11T11:24:19.988Z,20.25
2023-08-11T11:25:20.242Z,20.39
2023-08-11T11:26:31.092Z,20.06
2023-08-11T11:27:27.887Z,20.16
2023-08-11T11:28:24.556Z,19.85
2023-08-11T11:29:25.489Z,20.16
2023-08-11T11:30:22.360Z,20.19
2023-08-11T11:31:20.603Z,20.07
2023-08-11T11:32:18.128Z,20.35
2023-08-11T11:33:15.674Z,20.67
2023-08-11T11:34:12.501Z,20.29
2023-08-11T11:35:10.213Z,20.17
2023-08-11T11:36:07.712Z,20.26
2023-08-11T11:37:04.758Z,20.50
2023-08-11T11:38:01.530Z,20.62
2023-08-11T11:38:58.351Z,20.22
2023-08-11T11:39:55.368Z,20.16
2023-08-11T11:40:53.125Z,20.12
2023-08-11T11:41:49.754Z,20.43
2023-08-11T11:42:48.257Z,20.55
2023-08-11T11:43:50.217Z,20.62
2023-08-11T11:44:47.278Z,20.42
2023-08-11T11:45:44.475Z,20.84
2023-08-11T11:46:41.435Z,20.44
2023-08-11T11:47:38.553Z,20.60
2023-08-11T11:48:35.288Z,20.90
2023-08-11T11:50:30.470Z,21.01
2023-08-11T11:51:30.502Z,21.30
2023-08-11T11:52:27.158Z,21.26
2023-08-11T11:53:24.335Z,21.44
2023-08-11T11:54:21.039Z,21.73
2023-08-11T11:55:18.157Z,21.47
2023-08-11T11:56:16.189Z,21.73
2023-08-11T11:57:13.201Z,21.70
2023-08-11T11:58:10.709Z,21.72
2023-08-11T11:59:07.403Z,21.69
2023-08-11T12:00:04.882Z,21.43
2023-08-11T12:01:19.172Z,21.52
2023-08-11T12:02:17.174Z,21.52
2023-08-11T12:03:14.190Z,21.69
2023-08-11T12:04:11.223Z,21.93
2023-08-11T12:05:09.476Z,22.29
2023-08-11T12:06:07.575Z,22.13
2023-08-11T12:07:06.842Z,22.42
2023-08-11T12:08:22.670Z,22.23
2023-08-11T12:09:20.671Z,22.32
2023-08-11T12:10:22.185Z,22.11
2023-08-11T12:11:27.738Z,22.27
2023-08-11T12:12:25.448Z,22.53
2023-08-11T12:13:22.191Z,22.84
2023-08-11T12:14:19.117Z,22.65
2023-08-11T12:15:19.056Z,22.68
2023-08-11T12:16:15.845Z,23.81
2023-08-11T12:17:12.776Z,23.52
2023-08-11T12:18:10.098Z,23.74
2023-08-11T12:19:08.981Z,23.13
2023-08-11T12:20:09.656Z,23.19
2023-08-11T12:21:07.424Z,23.63
2023-08-11T12:22:05.205Z,23.88
2023-08-11T12:23:01.979Z,24.23
2023-08-11T12:23:58.713Z,23.32
2023-08-11T12:24:55.353Z,23.94
2023-08-11T12:25:51.967Z,23.72